Time;durP1;ratioP1;P1;durP2;ratioP2;P2;SDS_P1;SDS_P2;PMS_P1;PMS_P2;Temp;Humidity;BMP_temperature;BMP_pressure;BME280_temperature;BME280_humidity;BME280_pressure;Samples;Min_cycle;Max_cycle;Signal;HPM_P1;HPM_P2
2022/08/14 00:00:15;;;;;;;0.00;0.00;;;23.20;60.30;;;;;;5051761;28;20057;-67
2022/08/14 00:02:41;;;;;;;0.00;0.00;;;23.20;60.00;;;;;;5051988;28;20445;-67
2022/08/14 00:05:10;;;;;;;0.00;0.00;;;23.20;60.20;;;;;;5067105;28;20049;-67
2022/08/14 00:07:36;;;;;;;0.00;0.00;;;23.20;60.10;;;;;;5051291;28;20049;-67
2022/08/14 00:10:04;;;;;;;0.00;0.00;;;23.20;60.20;;;;;;5059386;28;20048;-67
2022/08/14 00:12:32;;;;;;;0.00;0.00;;;23.10;61.10;;;;;;5071343;28;20128;-67
2022/08/14 00:14:58;;;;;;;0.00;0.00;;;23.10;60.80;;;;;;5071585;28;20041;-67
2022/08/14 00:17:25;;;;;;;0.00;0.00;;;23.10;60.60;;;;;;5071538;28;20047;-67
2022/08/14 00:19:51;;;;;;;0.00;0.00;;;23.00;61.00;;;;;;5071356;28;20444;-67
2022/08/14 00:22:17;;;;;;;0.00;0.00;;;23.00;61.00;;;;;;5071136;28;20041;-68
2022/08/14 00:24:44;;;;;;;0.00;0.00;;;23.00;60.90;;;;;;5071300;28;20405;-67
2022/08/14 00:27:10;;;;;;;0.00;0.00;;;23.00;61.80;;;;;;5071020;28;20052;-67
2022/08/14 00:29:35;;;;;;;0.00;0.00;;;23.00;61.60;;;;;;5071249;28;20033;-67
2022/08/14 00:32:01;;;;;;;0.00;0.00;;;23.00;61.30;;;;;;5071191;28;20044;-67
2022/08/14 00:34:26;;;;;;;0.00;0.00;;;23.00;61.00;;;;;;5071119;28;20044;-67
2022/08/14 00:36:52;;;;;;;0.00;0.00;;;22.90;61.90;;;;;;5070731;28;20056;-67
2022/08/14 00:39:18;;;;;;;0.00;0.00;;;22.90;61.50;;;;;;5071074;28;20500;-67
2022/08/14 00:41:44;;;;;;;0.00;0.00;;;22.80;61.30;;;;;;5071031;28;20036;-67
2022/08/14 00:44:09;;;;;;;0.00;0.00;;;22.80;62.30;;;;;;5071270;28;20401;-67
2022/08/14 00:46:37;;;;;;;0.00;0.00;;;22.80;61.80;;;;;;5066031;28;20044;-67
2022/08/14 00:49:03;;;;;;;0.00;0.00;;;22.80;61.70;;;;;;5054405;28;20047;-67
2022/08/14 00:51:32;;;;;;;0.00;0.00;;;22.80;61.80;;;;;;5051976;28;20119;-67
2022/08/14 00:53:58;;;;;;;0.00;0.00;;;22.80;62.40;;;;;;5063899;28;20498;-67
2022/08/14 00:56:25;;;;;;;0.00;0.00;;;22.70;62.10;;;;;;5050275;28;20049;-67
2022/08/14 00:58:51;;;;;;;0.00;0.00;;;22.70;62.40;;;;;;5054424;28;20048;-67
2022/08/14 01:01:17;;;;;;;0.00;0.00;;;22.70;62.40;;;;;;5070751;28;20445;-67
2022/08/14 01:03:44;;;;;;;0.00;0.00;;;22.60;62.30;;;;;;5070595;28;20044;-67
2022/08/14 01:06:12;;;;;;;0.00;0.00;;;22.60;62.80;;;;;;5050573;28;20049;-67
2022/08/14 01:08:39;;;;;;;0.00;0.00;;;22.60;62.90;;;;;;5050459;28;20052;-67
2022/08/14 01:11:05;;;;;;;0.00;0.00;;;22.60;63.50;;;;;;5050153;28;20045;-67
2022/08/14 01:13:36;;;;;;;0.00;0.00;;;22.50;64.00;;;;;;5050451;28;20076;-67
2022/08/14 01:16:09;;;;;;;0.00;0.00;;;22.50;63.90;;;;;;5050789;28;20430;-67
2022/08/14 01:21:30;;;;;;;0.00;0.00;;;22.50;64.10;;;;;;5070086;28;20045;-67
2022/08/14 01:23:57;;;;;;;0.00;0.00;;;22.40;64.90;;;;;;5070028;28;20118;-67
2022/08/14 01:26:24;;;;;;;0.50;0.50;;;22.40;64.60;;;;;;5069167;28;20067;-67
2022/08/14 01:28:56;;;;;;;0.22;0.22;;;22.30;64.90;;;;;;5057795;28;20052;-67
2022/08/14 01:31:30;;;;;;;0.00;0.00;;;22.30;64.70;;;;;;5050159;28;20045;-67
2022/08/14 01:33:58;;;;;;;0.00;0.00;;;22.30;64.80;;;;;;5055997;28;20036;-67
2022/08/14 01:36:27;;;;;;;0.00;0.00;;;22.20;65.10;;;;;;5070058;28;20075;-67
2022/08/14 01:38:57;;;;;;;0.00;0.00;;;22.30;65.00;;;;;;5069747;28;20953;-67
2022/08/14 01:41:26;;;;;;;0.00;0.00;;;22.20;65.00;;;;;;5068632;28;20489;-67
2022/08/14 01:43:59;;;;;;;0.00;0.00;;;22.20;65.10;;;;;;5069766;28;20084;-67
2022/08/14 01:46:27;;;;;;;0.00;0.00;;;22.20;65.10;;;;;;5058902;28;20037;-67
2022/08/14 01:48:53;;;;;;;0.00;0.00;;;22.10;65.50;;;;;;5049386;28;20074;-67
2022/08/14 01:51:23;;;;;;;0.00;0.00;;;22.10;66.10;;;;;;5049768;28;20049;-67
2022/08/14 01:53:56;;;;;;;0.00;0.00;;;22.10;65.60;;;;;;5049699;28;20056;-67
2022/08/14 01:56:36;;;;;;;0.00;0.00;;;22.10;65.10;;;;;;5049421;28;20056;-67
2022/08/14 01:59:18;;;;;;;0.00;0.00;;;22.00;65.60;;;;;;5049342;28;20132;-67
2022/08/14 02:01:50;;;;;;;0.00;0.00;;;22.00;66.00;;;;;;5049440;28;20049;-67
2022/08/14 02:04:19;;;;;;;0.00;0.00;;;22.00;65.50;;;;;;5049446;28;20114;-67
2022/08/14 02:06:45;;;;;;;0.10;0.10;;;21.90;66.10;;;;;;5049468;28;20052;-67
2022/08/14 02:09:10;;;;;;;0.00;0.00;;;21.90;66.30;;;;;;5049088;28;20045;-67
2022/08/14 02:11:36;;;;;;;0.10;0.10;;;21.90;65.70;;;;;;5049420;28;20082;-67
2022/08/14 02:14:05;;;;;;;0.00;0.00;;;21.90;65.90;;;;;;5049350;28;20048;-67
2022/08/14 02:16:37;;;;;;;0.00;0.00;;;21.90;65.70;;;;;;5049431;28;20522;-67
2022/08/14 02:19:06;;;;;;;0.00;0.00;;;21.90;65.80;;;;;;5049256;28;20048;-67
2022/08/14 02:21:33;;;;;;;0.00;0.00;;;21.80;65.70;;;;;;5048535;28;20049;-67
2022/08/14 02:24:03;;;;;;;0.00;0.00;;;21.80;65.90;;;;;;5068581;28;20998;-67
2022/08/14 02:26:31;;;;;;;0.00;0.00;;;21.80;65.80;;;;;;5069396;28;20056;-67
2022/08/14 02:29:04;;;;;;;0.00;0.00;;;21.80;66.40;;;;;;5068927;28;20044;-67
2022/08/14 02:31:33;;;;;;;0.00;0.00;;;21.80;66.20;;;;;;5068983;28;20045;-67
2022/08/14 02:34:02;;;;;;;0.00;0.00;;;21.80;66.80;;;;;;5069378;28;20131;-67
2022/08/14 02:36:28;;;;;;;0.00;0.00;;;21.70;66.90;;;;;;5064556;28;20493;-67
2022/08/14 02:38:53;;;;;;;0.00;0.00;;;21.70;67.10;;;;;;5053709;28;20052;-67
2022/08/14 02:41:19;;;;;;;0.00;0.00;;;21.80;66.80;;;;;;5048991;28;20044;-67
2022/08/14 02:43:45;;;;;;;0.00;0.00;;;21.70;66.90;;;;;;5050014;28;20037;-67
2022/08/14 02:46:11;;;;;;;0.00;0.00;;;21.70;66.30;;;;;;5062604;28;21102;-67
2022/08/14 02:48:39;;;;;;;0.00;0.00;;;21.60;66.90;;;;;;5056809;28;20048;-67
2022/08/14 02:51:13;;;;;;;0.00;0.00;;;21.60;66.90;;;;;;5055907;28;20044;-67
2022/08/14 02:53:44;;;;;;;0.00;0.00;;;21.60;67.00;;;;;;5070024;28;20051;-67
2022/08/14 02:56:16;;;;;;;0.10;0.10;;;21.60;68.00;;;;;;5057099;28;20080;-67
2022/08/14 02:58:47;;;;;;;0.00;0.00;;;21.60;68.00;;;;;;5049083;28;20110;-67
2022/08/14 03:01:14;;;;;;;0.00;0.00;;;21.50;67.70;;;;;;5048672;28;20052;-67
2022/08/14 03:03:41;;;;;;;0.00;0.00;;;21.50;67.50;;;;;;5054792;28;20485;-67
2022/08/14 03:06:08;;;;;;;0.00;0.00;;;21.50;67.80;;;;;;5067388;28;20098;-67
2022/08/14 03:08:36;;;;;;;0.00;0.00;;;21.50;67.80;;;;;;5048817;28;20049;-67
2022/08/14 03:11:06;;;;;;;0.00;0.00;;;21.50;67.70;;;;;;5054211;28;20037;-67
2022/08/14 03:13:46;;;;;;;0.00;0.00;;;21.40;67.40;;;;;;5068672;28;20131;-68
2022/08/14 03:16:15;;;;;;;0.00;0.00;;;21.50;68.10;;;;;;5068914;28;20045;-67
2022/08/14 03:18:43;;;;;;;0.00;0.00;;;21.50;67.90;;;;;;5068711;28;20123;-67
2022/08/14 03:21:12;;;;;;;0.00;0.00;;;21.40;68.30;;;;;;5069064;28;20119;-67
2022/08/14 03:23:39;;;;;;;0.00;0.00;;;21.40;68.20;;;;;;5059412;28;20552;-67
2022/08/14 03:26:09;;;;;;;0.00;0.00;;;21.30;68.60;;;;;;5047574;28;20632;-67
2022/08/14 03:28:40;;;;;;;0.00;0.00;;;21.30;68.40;;;;;;5048743;28;20049;-67
2022/08/14 03:31:06;;;;;;;0.00;0.00;;;21.40;68.40;;;;;;5048644;28;20095;-67
2022/08/14 03:33:33;;;;;;;0.00;0.00;;;21.40;68.50;;;;;;5051018;28;20048;-67
2022/08/14 03:36:00;;;;;;;0.00;0.00;;;21.40;68.60;;;;;;5052543;28;20049;-67
2022/08/14 03:38:26;;;;;;;0.00;0.00;;;21.30;69.30;;;;;;5051801;28;20098;-67
2022/08/14 03:40:51;;;;;;;0.00;0.00;;;21.30;68.60;;;;;;5052300;28;20040;-67
2022/08/14 03:43:17;;;;;;;0.00;0.00;;;21.40;68.60;;;;;;5051951;28;20560;-67
2022/08/14 03:45:43;;;;;;;0.00;0.00;;;21.30;69.00;;;;;;5052007;28;20052;-67
2022/08/14 03:48:18;;;;;;;0.00;0.00;;;21.30;68.80;;;;;;5051922;28;20067;-68
2022/08/14 03:50:48;;;;;;;0.00;0.00;;;21.30;69.40;;;;;;5051787;28;20047;-67
2022/08/14 03:53:14;;;;;;;0.00;0.00;;;21.30;69.00;;;;;;5051481;28;20525;-67
2022/08/14 03:55:40;;;;;;;0.00;0.00;;;21.20;69.20;;;;;;5051866;28;20076;-67
2022/08/14 03:58:07;;;;;;;0.00;0.00;;;21.20;69.10;;;;;;5051843;28;20406;-67
2022/08/14 04:00:34;;;;;;;0.00;0.00;;;21.20;69.60;;;;;;5063888;28;20040;-67
2022/08/14 04:03:05;;;;;;;0.00;0.00;;;21.20;69.30;;;;;;5070069;28;20486;-67
2022/08/14 04:05:32;;;;;;;0.00;0.00;;;21.20;69.80;;;;;;5071821;28;20039;-67
2022/08/14 04:07:58;;;;;;;0.00;0.00;;;21.20;69.60;;;;;;5071458;28;20036;-67
2022/08/14 04:10:25;;;;;;;0.00;0.00;;;21.10;69.60;;;;;;5071690;28;20383;-67
2022/08/14 04:12:50;;;;;;;0.00;0.00;;;21.10;69.50;;;;;;5051955;28;20136;-67
2022/08/14 04:15:20;;;;;;;0.00;0.00;;;21.10;70.10;;;;;;5059276;28;20116;-67
2022/08/14 04:17:46;;;;;;;0.00;0.00;;;21.10;70.10;;;;;;5071329;28;20444;-67
2022/08/14 04:20:12;;;;;;;0.00;0.00;;;21.10;69.70;;;;;;5059739;28;20413;-67
2022/08/14 04:22:42;;;;;;;0.00;0.00;;;21.00;70.10;;;;;;5051021;28;20037;-67
2022/08/14 04:25:08;;;;;;;0.00;0.00;;;21.00;70.20;;;;;;5050692;28;20641;-67
2022/08/14 04:27:34;;;;;;;0.00;0.00;;;21.00;70.40;;;;;;5051083;28;20053;-67
2022/08/14 04:30:01;;;;;;;0.00;0.00;;;21.00;70.10;;;;;;5051310;28;20056;-67
2022/08/14 04:32:26;;;;;;;0.00;0.00;;;21.00;69.90;;;;;;5058896;28;20481;-67
2022/08/14 04:34:53;;;;;;;0.00;0.00;;;21.00;69.80;;;;;;5070067;28;20128;-67
2022/08/14 04:45:41;;;;;;;0.00;0.00;;;20.90;70.20;;;;;;5050730;28;20045;-67
2022/08/14 04:48:14;;;;;;;0.00;0.00;;;20.90;71.00;;;;;;5057772;28;20051;-67
2022/08/14 04:50:41;;;;;;;0.00;0.00;;;20.90;70.20;;;;;;5070218;28;20493;-67
2022/08/14 04:53:09;;;;;;;0.00;0.00;;;21.00;70.30;;;;;;5070680;28;20041;-67
2022/08/14 04:55:35;;;;;;;0.00;0.00;;;20.90;70.80;;;;;;5070059;28;20056;-67
2022/08/14 04:58:03;;;;;;;0.00;0.00;;;20.90;70.20;;;;;;5066319;28;20052;-67
2022/08/14 05:00:29;;;;;;;0.00;0.00;;;21.00;70.30;;;;;;5050286;28;20033;-66
2022/08/14 05:02:55;;;;;;;0.10;0.10;;;21.00;70.30;;;;;;5051572;28;20045;-67
2022/08/14 05:05:23;;;;;;;0.10;0.10;;;20.90;70.70;;;;;;5051399;28;20060;-67
2022/08/14 05:07:50;;;;;;;0.00;0.00;;;21.00;70.90;;;;;;5056721;28;20879;-67
2022/08/14 05:10:16;;;;;;;0.00;0.00;;;21.00;70.40;;;;;;5067370;28;20045;-67
2022/08/14 05:12:42;;;;;;;0.03;0.03;;;21.00;70.40;;;;;;5057191;28;20043;-67
2022/08/14 05:15:09;;;;;;;0.10;0.10;;;21.00;70.60;;;;;;5060803;28;20644;-67
2022/08/14 05:17:41;;;;;;;0.20;0.20;;;21.00;70.00;;;;;;5065815;28;20409;-67
2022/08/14 05:20:08;;;;;;;0.00;0.00;;;21.10;70.10;;;;;;5056598;28;20409;-67
2022/08/14 05:22:33;;;;;;;0.52;0.52;;;21.10;70.50;;;;;;5050040;28;20045;-65
2022/08/14 05:25:00;;;;;;;0.00;0.00;;;21.10;70.70;;;;;;5066870;28;20065;-64
2022/08/14 05:27:26;;;;;;;0.38;0.38;;;21.20;71.00;;;;;;5062869;28;20588;-64
2022/08/14 05:29:53;;;;;;;0.00;0.00;;;21.20;70.70;;;;;;5069974;28;20043;-64
2022/08/14 05:32:19;;;;;;;0.00;0.00;;;21.20;70.30;;;;;;5056405;28;20052;-64
2022/08/14 05:34:44;;;;;;;0.30;0.28;;;21.30;70.10;;;;;;5064219;28;20045;-64
2022/08/14 05:37:11;;;;;;;0.00;0.00;;;21.30;69.40;;;;;;5057116;28;20044;-64
2022/08/14 05:39:38;;;;;;;0.00;0.00;;;21.40;69.00;;;;;;5062153;28;20045;-64
2022/08/14 05:42:04;;;;;;;0.00;0.00;;;21.40;69.00;;;;;;5064752;28;20090;-63
2022/08/14 05:44:29;;;;;;;0.00;0.00;;;21.50;68.90;;;;;;5067905;28;20041;-64
2022/08/14 05:46:55;;;;;;;0.00;0.00;;;21.50;68.70;;;;;;5047841;28;20052;-64
2022/08/14 05:49:21;;;;;;;0.00;0.00;;;21.50;69.10;;;;;;5052837;28;20037;-65
2022/08/14 05:51:46;;;;;;;1.30;0.30;;;21.50;68.90;;;;;;5062489;28;20048;-65
2022/08/14 05:54:12;;;;;;;0.00;0.00;;;21.60;68.70;;;;;;5053074;28;20490;-64
2022/08/14 05:56:37;;;;;;;0.00;0.00;;;21.60;69.00;;;;;;5051218;28;20119;-64
2022/08/14 05:59:04;;;;;;;0.10;0.10;;;21.60;68.60;;;;;;5069238;28;20044;-64
2022/08/14 06:01:29;;;;;;;0.00;0.00;;;21.70;68.50;;;;;;5069456;28;20050;-64
2022/08/14 06:03:55;;;;;;;0.10;0.10;;;21.80;68.40;;;;;;5069389;28;20045;-65
2022/08/14 06:06:21;;;;;;;0.00;0.00;;;21.80;68.50;;;;;;5067388;28;20668;-65
2022/08/14 06:08:46;;;;;;;0.00;0.00;;;21.90;68.50;;;;;;5066893;28;20049;-67
2022/08/14 06:11:12;;;;;;;0.00;0.00;;;21.90;68.20;;;;;;5053547;28;20539;-68
2022/08/14 06:13:40;;;;;;;0.00;0.00;;;22.00;68.30;;;;;;5069369;28;20082;-68
2022/08/14 06:16:06;;;;;;;0.00;0.00;;;22.10;67.90;;;;;;5063088;28;20119;-68
2022/08/14 06:18:32;;;;;;;0.00;0.00;;;22.10;68.10;;;;;;5066821;28;20052;-68
2022/08/14 06:20:58;;;;;;;0.10;0.10;;;22.20;68.30;;;;;;5068545;28;20047;-68
2022/08/14 06:23:24;;;;;;;0.30;0.20;;;22.10;67.70;;;;;;5055639;28;20659;-68
2022/08/14 06:25:49;;;;;;;0.00;0.00;;;22.20;67.60;;;;;;5049269;28;20052;-68
2022/08/14 06:28:21;;;;;;;0.00;0.00;;;22.30;67.90;;;;;;5051590;28;20091;-68
2022/08/14 06:30:47;;;;;;;0.00;0.00;;;22.30;68.40;;;;;;5069397;28;20043;-68
2022/08/14 06:33:14;;;;;;;0.00;0.00;;;22.30;69.00;;;;;;5052697;28;20045;-67
2022/08/14 06:35:40;;;;;;;0.00;0.00;;;22.30;69.20;;;;;;5048945;28;20116;-67
2022/08/14 06:38:06;;;;;;;0.00;0.00;;;22.40;69.30;;;;;;5060962;28;20041;-67
2022/08/14 06:40:36;;;;;;;0.00;0.00;;;22.30;68.90;;;;;;5054779;28;20040;-66
2022/08/14 06:43:08;;;;;;;0.00;0.00;;;22.40;69.00;;;;;;5068410;28;20485;-66
2022/08/14 06:45:39;;;;;;;0.00;0.00;;;22.40;69.40;;;;;;5068379;28;20051;-67
2022/08/14 06:48:16;;;;;;;0.00;0.00;;;22.40;69.10;;;;;;5057804;28;20517;-67
2022/08/14 06:50:43;;;;;;;0.00;0.00;;;22.50;69.60;;;;;;5058590;28;20049;-67
2022/08/14 06:53:10;;;;;;;0.00;0.00;;;22.50;69.60;;;;;;5048980;28;20044;-67
2022/08/14 06:55:36;;;;;;;0.00;0.00;;;22.50;70.20;;;;;;5048224;28;20058;-67
2022/08/14 06:58:02;;;;;;;0.00;0.00;;;22.60;69.30;;;;;;5055539;28;20401;-67
2022/08/14 07:00:28;;;;;;;0.03;0.03;;;22.60;69.20;;;;;;5068840;28;20044;-67
2022/08/14 07:05:48;;;;;;;0.00;0.00;;;22.80;69.00;;;;;;5057602;28;20041;-67
2022/08/14 07:08:27;;;;;;;0.00;0.00;;;22.80;69.40;;;;;;5062146;28;20129;-67
2022/08/14 07:10:55;;;;;;;0.00;0.00;;;22.90;69.20;;;;;;5064898;28;20123;-66
2022/08/14 07:13:21;;;;;;;0.00;0.00;;;22.90;68.70;;;;;;5063386;28;20056;-67
2022/08/14 07:15:49;;;;;;;0.00;0.00;;;22.90;69.00;;;;;;5052613;28;20551;-67
2022/08/14 07:18:35;;;;;;;0.10;0.10;;;23.00;68.80;;;;;;5064664;28;20059;-67
2022/08/14 07:21:04;;;;;;;0.10;0.08;;;23.00;68.60;;;;;;5072435;28;21031;-67
2022/08/14 07:23:29;;;;;;;0.00;0.00;;;23.10;68.30;;;;;;5072132;28;20074;-67
2022/08/14 07:25:56;;;;;;;0.00;0.00;;;23.10;68.60;;;;;;5070758;28;20127;-67
2022/08/14 07:28:34;;;;;;;0.00;0.00;;;23.20;68.40;;;;;;5071005;28;20084;-67
2022/08/14 07:31:03;;;;;;;0.00;0.00;;;23.30;68.30;;;;;;5055220;28;20037;-67
2022/08/14 07:33:32;;;;;;;0.00;0.00;;;23.40;68.30;;;;;;5050557;28;20051;-67
2022/08/14 07:36:02;;;;;;;0.00;0.00;;;23.40;68.30;;;;;;5058436;28;20088;-67
2022/08/14 07:38:28;;;;;;;0.00;0.00;;;23.50;68.10;;;;;;5072064;28;20041;-67
2022/08/14 07:40:54;;;;;;;0.00;0.00;;;23.50;68.20;;;;;;5072115;28;20571;-67
2022/08/14 07:43:20;;;;;;;0.05;0.05;;;23.60;67.80;;;;;;5071953;28;20080;-67
2022/08/14 07:45:46;;;;;;;0.00;0.00;;;23.60;67.90;;;;;;5071585;28;20049;-67
2022/08/14 07:48:11;;;;;;;0.00;0.00;;;23.70;67.30;;;;;;5071564;28;20051;-67
2022/08/14 07:50:38;;;;;;;0.10;0.10;;;23.80;67.00;;;;;;5067203;28;20044;-67
2022/08/14 07:53:05;;;;;;;0.00;0.00;;;23.90;67.40;;;;;;5071894;28;20498;-67
2022/08/14 07:55:32;;;;;;;0.00;0.00;;;24.00;67.30;;;;;;5067381;28;20048;-68
2022/08/14 07:57:58;;;;;;;0.20;0.20;;;24.00;67.10;;;;;;5056442;28;20057;-67
2022/08/14 08:00:24;;;;;;;0.00;0.00;;;24.10;67.10;;;;;;5051331;28;20073;-65
2022/08/14 08:02:53;;;;;;;0.00;0.00;;;24.10;66.50;;;;;;5051494;28;20080;-65
2022/08/14 08:05:20;;;;;;;0.00;0.00;;;24.20;66.60;;;;;;5051647;28;20037;-67
2022/08/14 08:07:47;;;;;;;0.00;0.00;;;24.30;66.50;;;;;;5051441;28;20051;-67
2022/08/14 08:10:30;;;;;;;0.00;0.00;;;24.40;66.20;;;;;;5051794;28;20156;-68
2022/08/14 08:13:12;;;;;;;0.00;0.00;;;24.50;66.00;;;;;;5051060;28;20111;-67
2022/08/14 08:15:41;;;;;;;0.00;0.00;;;24.50;65.80;;;;;;5061462;28;20041;-67
2022/08/14 08:18:09;;;;;;;0.00;0.00;;;24.60;66.20;;;;;;5070752;28;20045;-68
2022/08/14 08:20:37;;;;;;;0.00;0.00;;;24.70;65.80;;;;;;5053376;28;20041;-68
2022/08/14 08:23:05;;;;;;;0.38;0.38;;;24.70;65.90;;;;;;5051256;28;20087;-67
2022/08/14 08:25:34;;;;;;;0.00;0.00;;;24.80;66.10;;;;;;5050083;28;20417;-67
2022/08/14 08:28:07;;;;;;;0.10;0.10;;;24.90;65.80;;;;;;5050995;28;20041;-68
2022/08/14 08:30:36;;;;;;;0.00;0.00;;;24.90;65.60;;;;;;5054152;28;20094;-67
2022/08/14 08:33:03;;;;;;;0.00;0.00;;;25.00;65.70;;;;;;5054726;28;20041;-67
2022/08/14 08:35:34;;;;;;;0.00;0.00;;;25.00;65.80;;;;;;5068705;28;20055;-65
2022/08/14 08:38:08;;;;;;;0.13;0.13;;;25.10;65.60;;;;;;5064413;28;20052;-65
2022/08/14 08:40:38;;;;;;;0.10;0.10;;;25.20;65.30;;;;;;5065452;28;20051;-65
2022/08/14 08:43:15;;;;;;;0.00;0.00;;;25.20;65.30;;;;;;5053526;28;20049;-65
2022/08/14 08:45:41;;;;;;;0.00;0.00;;;25.40;65.10;;;;;;5064390;28;20056;-65
2022/08/14 08:48:07;;;;;;;0.00;0.00;;;25.40;64.60;;;;;;5060719;28;20596;-65
2022/08/14 08:50:36;;;;;;;0.00;0.00;;;25.50;64.30;;;;;;5050551;28;20124;-65
2022/08/14 08:53:07;;;;;;;0.00;0.00;;;25.50;63.50;;;;;;5050650;28;20045;-65
2022/08/14 08:55:39;;;;;;;0.00;0.00;;;25.60;63.30;;;;;;5062822;28;20050;-66
2022/08/14 08:58:08;;;;;;;0.03;0.03;;;25.70;63.70;;;;;;5070699;28;20048;-65
2022/08/14 09:00:36;;;;;;;0.00;0.00;;;25.80;64.10;;;;;;5068788;28;20045;-65
2022/08/14 09:03:06;;;;;;;0.00;0.00;;;25.90;62.10;;;;;;5069109;28;20432;-66
2022/08/14 09:05:34;;;;;;;0.00;0.00;;;26.00;61.60;;;;;;5058573;28;20036;-66
2022/08/14 09:08:18;;;;;;;0.22;0.13;;;26.00;60.90;;;;;;5050459;28;20045;-66
2022/08/14 09:10:44;;;;;;;0.00;0.00;;;26.20;61.40;;;;;;5060147;28;20044;-66
2022/08/14 09:13:11;;;;;;;0.22;0.22;;;26.20;61.20;;;;;;5070277;28;20045;-66
2022/08/14 09:15:39;;;;;;;0.00;0.00;;;26.30;61.30;;;;;;5058842;28;20040;-65
2022/08/14 09:18:06;;;;;;;0.00;0.00;;;26.40;61.10;;;;;;5051755;28;20141;-66
2022/08/14 09:20:32;;;;;;;0.00;0.00;;;26.50;60.80;;;;;;5055570;28;20628;-65
2022/08/14 09:22:58;;;;;;;0.00;0.00;;;26.50;60.20;;;;;;5059984;28;20068;-66
2022/08/14 09:25:24;;;;;;;0.00;0.00;;;26.60;60.00;;;;;;5058926;28;20079;-66
2022/08/14 09:27:49;;;;;;;0.00;0.00;;;26.60;60.10;;;;;;5055258;28;20072;-66
2022/08/14 09:30:16;;;;;;;0.00;0.00;;;26.80;59.90;;;;;;5052920;28;20110;-66
2022/08/14 09:33:23;;;;;;;0.00;0.00;;;26.80;59.20;;;;;;5068499;28;20048;-65
2022/08/14 09:36:07;;;;;;;0.28;0.17;;;26.90;58.90;;;;;;5053541;28;20049;-67
2022/08/14 09:38:45;;;;;;;0.00;0.00;;;26.90;59.70;;;;;;5049845;28;20049;-66
2022/08/14 09:41:41;;;;;;;0.00;0.00;;;27.00;57.90;;;;;;5058408;28;20048;-66
2022/08/14 09:44:13;;;;;;;0.00;0.00;;;27.10;58.60;;;;;;5053012;28;20048;-66
2022/08/14 09:46:39;;;;;;;0.00;0.00;;;27.10;58.40;;;;;;5051698;28;20520;-67
2022/08/14 09:49:06;;;;;;;0.00;0.00;;;27.20;59.00;;;;;;5068309;28;20044;-66
2022/08/14 09:51:38;;;;;;;0.00;0.00;;;27.20;57.80;;;;;;5065271;28;20091;-66
2022/08/14 09:54:09;;;;;;;0.03;0.03;;;27.30;58.50;;;;;;5048859;28;20037;-66
2022/08/14 09:56:45;;;;;;;0.90;0.80;;;27.40;58.70;;;;;;5049677;28;20045;-66
2022/08/14 09:59:13;;;;;;;0.00;0.00;;;27.40;58.20;;;;;;5049209;28;20049;-67
2022/08/14 10:01:40;;;;;;;0.00;0.00;;;27.50;58.30;;;;;;5048874;28;20044;-67
2022/08/14 10:04:22;;;;;;;0.00;0.00;;;27.50;57.90;;;;;;5053123;28;20545;-67
2022/08/14 10:06:48;;;;;;;0.00;0.00;;;27.50;56.80;;;;;;5053385;28;20044;-66
2022/08/14 10:09:13;;;;;;;0.00;0.00;;;27.60;57.50;;;;;;5050208;28;20107;-67
2022/08/14 10:11:40;;;;;;;0.00;0.00;;;27.70;57.50;;;;;;5063834;28;20052;-67
2022/08/14 10:14:21;;;;;;;0.10;0.10;;;27.70;57.10;;;;;;5067664;28;20079;-67
2022/08/14 10:16:51;;;;;;;0.00;0.00;;;27.80;57.30;;;;;;5069431;28;20044;-67
2022/08/14 10:19:18;;;;;;;0.00;0.00;;;27.90;56.70;;;;;;5052148;28;20174;-68
2022/08/14 10:22:00;;;;;;;0.00;0.00;;;27.90;55.80;;;;;;5047822;28;20052;-67
2022/08/14 10:24:38;;;;;;;0.10;0.10;;;28.00;55.80;;;;;;5049649;28;20145;-68
2022/08/14 10:27:22;;;;;;;0.00;0.00;;;28.00;55.10;;;;;;5056877;28;20055;-67
2022/08/14 10:29:53;;;;;;;0.05;0.05;;;28.10;55.90;;;;;;5050848;28;20085;-67
2022/08/14 10:32:21;;;;;;;0.00;0.00;;;28.10;55.60;;;;;;5051676;28;20149;-67
2022/08/14 10:34:48;;;;;;;0.10;0.10;;;28.20;55.90;;;;;;5062289;28;20083;-67
2022/08/14 10:37:16;;;;;;;0.00;0.00;;;28.20;54.70;;;;;;5056126;28;20045;-67
2022/08/14 10:40:00;;;;;;;0.10;0.10;;;28.30;55.50;;;;;;5053839;28;20110;-68
2022/08/14 10:42:35;;;;;;;0.00;0.00;;;28.30;55.40;;;;;;5055694;28;20100;-68
2022/08/14 10:45:01;;;;;;;0.00;0.00;;;28.40;53.90;;;;;;5057249;28;20139;-68
2022/08/14 10:47:34;;;;;;;0.00;0.00;;;28.40;54.70;;;;;;5052193;28;20137;-68
2022/08/14 10:50:00;;;;;;;0.00;0.00;;;28.50;54.30;;;;;;5034534;28;20088;-68
2022/08/14 10:52:30;;;;;;;0.00;0.00;;;28.50;53.90;;;;;;5066666;28;20080;-68
2022/08/14 10:55:33;;;;;;;0.00;0.00;;;28.50;54.50;;;;;;5051967;28;20053;-68
2022/08/14 10:57:59;;;;;;;0.00;0.00;;;28.50;53.80;;;;;;5034456;28;20049;-68
2022/08/14 11:00:28;;;;;;;0.00;0.00;;;28.50;52.90;;;;;;5052526;28;20064;-68
2022/08/14 11:03:09;;;;;;;0.95;0.90;;;28.60;53.60;;;;;;5071864;28;20041;-68
2022/08/14 11:05:49;;;;;;;0.00;0.00;;;28.60;53.90;;;;;;5072190;28;20056;-69
2022/08/14 11:08:18;;;;;;;0.00;0.00;;;28.70;53.20;;;;;;5072389;28;20048;-69
2022/08/14 11:11:04;;;;;;;0.00;0.00;;;28.70;52.40;;;;;;5071480;28;20795;-68
2022/08/14 11:13:30;;;;;;;0.15;0.15;;;28.80;53.20;;;;;;5071669;28;20441;-68
2022/08/14 11:16:01;;;;;;;0.05;0.05;;;28.90;52.90;;;;;;5072460;28;20054;-69
2022/08/14 11:18:28;;;;;;;0.28;0.20;;;28.90;52.10;;;;;;5071501;28;20465;-68
2022/08/14 11:20:58;;;;;;;0.00;0.00;;;29.00;51.00;;;;;;5059597;28;20486;-69
2022/08/14 11:23:29;;;;;;;0.00;0.00;;;29.00;51.60;;;;;;5055373;28;20050;-69
2022/08/14 11:25:57;;;;;;;0.10;0.10;;;29.10;49.90;;;;;;5055139;28;20040;-69
2022/08/14 11:28:26;;;;;;;0.00;0.00;;;29.20;52.00;;;;;;5052361;28;20226;-68
2022/08/14 11:30:52;;;;;;;0.00;0.00;;;29.20;51.60;;;;;;5055275;28;20044;-69
2022/08/14 11:33:28;;;;;;;0.00;0.00;;;29.30;51.70;;;;;;5055311;28;20401;-68
2022/08/14 11:35:53;;;;;;;0.00;0.00;;;29.40;51.00;;;;;;5064700;28;20442;-70
2022/08/14 11:38:20;;;;;;;0.00;0.00;;;29.50;51.40;;;;;;5059549;28;20048;-69
2022/08/14 11:40:46;;;;;;;0.00;0.00;;;29.50;50.50;;;;;;5067625;28;20045;-69
2022/08/14 11:43:12;;;;;;;0.00;0.00;;;29.50;50.00;;;;;;5072022;28;20041;-69
2022/08/14 11:45:39;;;;;;;0.55;0.17;;;29.60;48.50;;;;;;5071562;28;20515;-69
2022/08/14 11:48:23;;;;;;;0.52;0.47;;;29.60;50.40;;;;;;5070519;28;20048;-69
2022/08/14 11:50:53;;;;;;;0.00;0.00;;;29.60;48.60;;;;;;5055736;28;20537;-68
2022/08/14 11:53:29;;;;;;;1.98;1.20;;;29.70;48.90;;;;;;5050834;28;20087;-69
2022/08/14 11:56:03;;;;;;;0.00;0.00;;;29.70;49.40;;;;;;5061866;28;20398;-69
2022/08/14 11:58:34;;;;;;;0.00;0.00;;;29.60;50.50;;;;;;5071538;28;20059;-69
2022/08/14 12:01:02;;;;;;;;;;;29.70;50.30;;;;;;5065540;28;20386;-69
2022/08/14 12:03:44;;;;;;;0.10;0.10;;;29.70;50.60;;;;;;5051177;28;20420;-69
2022/08/14 12:06:18;;;;;;;0.00;0.00;;;29.80;50.00;;;;;;5068787;28;20041;-69
2022/08/14 12:08:52;;;;;;;0.25;0.25;;;30.00;49.30;;;;;;5070120;28;20098;-69
2022/08/14 12:11:18;;;;;;;1.45;0.82;;;30.00;48.70;;;;;;5068836;28;20040;-68
2022/08/14 12:13:45;;;;;;;0.08;0.08;;;30.00;48.60;;;;;;5070717;28;20413;-68
2022/08/14 12:16:15;;;;;;;0.00;0.00;;;30.00;48.90;;;;;;5054294;28;20074;-69
2022/08/14 12:18:47;;;;;;;0.00;0.00;;;30.10;49.10;;;;;;5057587;28;20037;-69
2022/08/14 12:21:18;;;;;;;0.00;0.00;;;30.20;47.80;;;;;;5071213;28;20043;-68
2022/08/14 12:23:46;;;;;;;0.10;0.10;;;30.30;48.20;;;;;;5056971;28;20095;-69
2022/08/14 12:26:19;;;;;;;0.10;0.10;;;30.40;48.50;;;;;;5051145;28;20394;-68
2022/08/14 12:28:50;;;;;;;0.05;0.05;;;30.50;47.60;;;;;;5050855;28;20052;-68
2022/08/14 12:31:19;;;;;;;0.10;0.10;;;30.50;48.20;;;;;;5051155;28;20565;-68
2022/08/14 12:34:10;;;;;;;0.10;0.10;;;30.60;48.40;;;;;;5050467;28;20036;-68
2022/08/14 12:36:36;;;;;;;0.00;0.00;;;30.70;47.80;;;;;;5052971;28;20382;-69
2022/08/14 12:39:19;;;;;;;0.00;0.00;;;30.80;47.30;;;;;;5054753;28;20480;-67
2022/08/14 12:41:51;;;;;;;0.00;0.00;;;30.80;45.60;;;;;;5052134;28;20120;-68
2022/08/14 12:44:28;;;;;;;0.00;0.00;;;30.90;47.70;;;;;;5053124;28;20103;-69
2022/08/14 12:47:15;;;;;;;0.10;0.10;;;30.90;47.70;;;;;;5069980;28;20045;-69
2022/08/14 12:49:53;;;;;;;0.00;0.00;;;30.90;46.80;;;;;;5069037;28;20048;-69
2022/08/14 12:52:33;;;;;;;0.43;0.28;;;30.70;47.20;;;;;;5049242;28;20053;-69
2022/08/14 12:55:00;;;;;;;0.00;0.00;;;30.50;46.10;;;;;;5053197;28;20078;-69
2022/08/14 12:57:43;;;;;;;0.00;0.00;;;30.40;46.80;;;;;;5070454;28;20048;-69
2022/08/14 13:00:12;;;;;;;0.00;0.00;;;30.50;46.90;;;;;;5067824;28;20044;-69
2022/08/14 13:02:40;;;;;;;0.00;0.00;;;30.60;47.10;;;;;;5056938;28;20105;-68
2022/08/14 13:05:08;;;;;;;0.00;0.00;;;30.70;47.40;;;;;;5067337;28;20047;-69
2022/08/14 13:07:34;;;;;;;0.00;0.00;;;30.80;47.30;;;;;;5051392;28;20099;-69
2022/08/14 13:10:00;;;;;;;0.57;0.43;;;31.00;47.20;;;;;;5052576;28;20037;-68
2022/08/14 13:12:30;;;;;;;0.40;0.40;;;31.10;46.60;;;;;;5070389;28;20123;-69